Terminal Aerodrome Forecast
Issued by NWS

Home | Current Version | Previous Version | Text Only | Print | Product List | Glossary On
Versions: 1 2 3 4 5 6 7 8 9 10 11 12 13 14 15 16 17 18 19 20 21
000
FTUS43 KDLH 021100 AAC
TAFBRD
TAF AMD
KBRD 021104Z 0211/0306 VRB03KT P6SM SKC
      TEMPO 0211/0213 1/2SM FG SCT005
     FM021800 20010G18KT P6SM SKC
     FM030000 17006KT P6SM BKN150=

USA.gov is the U.S. government's official web portal to all federal, state and local government web resources and services.